Goff, Kansas
Current Conditions -  °F | °C
As of 4:53 AM on Friday 19 Dec 2014 (Local Time) from KFNB Reporting Station
Overcast Overcast  
Wind Chill: 24°   Ceiling: 800
Heat Index: 29°   Visibility: 10mi
Dew Point: 26°   Wind: 5mph
Humidity: 89%   Direction: 210°SSW
Pressure: 30.24"   Gusts: NA
Location:  39.66°N, 95.93°W
Report Text: KFNB 191053Z AUTO 21004KT 10SM OVC008 M02/M03 A3024 RMK AO2 SLP250 T10171033
Loading
Personal Weather Stations






























Interactive Weather Map New forecast layout! Learn more

10-Day Weather Forecast

Advertisements
Track Severe Weather on mobile